sensor_id;sensor_type;location;lat;lon;timestamp;temperature;humidity
73509;SHT30;61750;55.036;73.312;2022-11-03T00:02:13;0.29;84.37
73509;SHT30;61750;55.036;73.312;2022-11-03T00:04:39;0.27;84.32
73509;SHT30;61750;55.036;73.312;2022-11-03T00:07:05;0.25;84.30
73509;SHT30;61750;55.036;73.312;2022-11-03T00:09:31;0.20;84.28
73509;SHT30;61750;55.036;73.312;2022-11-03T00:11:58;0.20;84.16
73509;SHT30;61750;55.036;73.312;2022-11-03T00:14:24;0.12;84.38
73509;SHT30;61750;55.036;73.312;2022-11-03T00:16:51;0.12;84.38
73509;SHT30;61750;55.036;73.312;2022-11-03T00:19:17;0.10;84.37
73509;SHT30;61750;55.036;73.312;2022-11-03T00:21:44;0.06;84.39
73509;SHT30;61750;55.036;73.312;2022-11-03T00:24:10;-0.01;84.19
73509;SHT30;61750;55.036;73.312;2022-11-03T00:26:36;-0.07;84.36
73509;SHT30;61750;55.036;73.312;2022-11-03T00:29:08;-0.09;84.66
73509;SHT30;61750;55.036;73.312;2022-11-03T00:31:45;-0.11;84.49
73509;SHT30;61750;55.036;73.312;2022-11-03T00:34:21;-0.14;84.57
73509;SHT30;61750;55.036;73.312;2022-11-03T00:36:53;-0.18;84.58
73509;SHT30;61750;55.036;73.312;2022-11-03T00:39:24;-0.23;84.54
73509;SHT30;61750;55.036;73.312;2022-11-03T00:41:51;-0.22;84.37
73509;SHT30;61750;55.036;73.312;2022-11-03T00:44:18;-0.30;84.45
73509;SHT30;61750;55.036;73.312;2022-11-03T00:46:44;-0.26;84.39
73509;SHT30;61750;55.036;73.312;2022-11-03T00:49:10;-0.30;84.29
73509;SHT30;61750;55.036;73.312;2022-11-03T00:51:37;-0.30;84.25
73509;SHT30;61750;55.036;73.312;2022-11-03T00:54:04;-0.32;84.07
73509;SHT30;61750;55.036;73.312;2022-11-03T00:56:35;-0.36;83.99
73509;SHT30;61750;55.036;73.312;2022-11-03T00:59:04;-0.39;83.90
73509;SHT30;61750;55.036;73.312;2022-11-03T01:01:38;-0.33;83.76
73509;SHT30;61750;55.036;73.312;2022-11-03T01:04:08;-0.36;83.53
73509;SHT30;61750;55.036;73.312;2022-11-03T01:06:55;-0.43;83.73
73509;SHT30;61750;55.036;73.312;2022-11-03T01:09:27;-0.48;83.81
73509;SHT30;61750;55.036;73.312;2022-11-03T01:12:03;-0.50;83.83
73509;SHT30;61750;55.036;73.312;2022-11-03T01:14:38;-0.49;84.00
73509;SHT30;61750;55.036;73.312;2022-11-03T01:17:06;-0.58;83.92
73509;SHT30;61750;55.036;73.312;2022-11-03T01:19:32;-0.60;84.06
73509;SHT30;61750;55.036;73.312;2022-11-03T01:21:59;-0.62;84.21
73509;SHT30;61750;55.036;73.312;2022-11-03T01:24:25;-0.65;84.39
73509;SHT30;61750;55.036;73.312;2022-11-03T01:26:51;-0.70;84.40
73509;SHT30;61750;55.036;73.312;2022-11-03T01:29:17;-0.70;84.55
73509;SHT30;61750;55.036;73.312;2022-11-03T01:31:44;-0.69;84.47
73509;SHT30;61750;55.036;73.312;2022-11-03T01:34:17;-0.69;84.57
73509;SHT30;61750;55.036;73.312;2022-11-03T01:36:44;-0.66;84.54
73509;SHT30;61750;55.036;73.312;2022-11-03T01:39:15;-0.63;84.20
73509;SHT30;61750;55.036;73.312;2022-11-03T01:41:52;-0.65;84.20
73509;SHT30;61750;55.036;73.312;2022-11-03T01:47:47;-0.74;84.11
73509;SHT30;61750;55.036;73.312;2022-11-03T01:49:51;-0.74;84.39
73509;SHT30;61750;55.036;73.312;2022-11-03T01:52:21;-0.76;84.21
73509;SHT30;61750;55.036;73.312;2022-11-03T01:54:54;-0.79;84.47
73509;SHT30;61750;55.036;73.312;2022-11-03T01:57:27;-0.72;84.27
73509;SHT30;61750;55.036;73.312;2022-11-03T01:59:55;-0.74;84.05
73509;SHT30;61750;55.036;73.312;2022-11-03T02:02:25;-0.77;84.20
73509;SHT30;61750;55.036;73.312;2022-11-03T02:04:53;-0.80;84.10
73509;SHT30;61750;55.036;73.312;2022-11-03T02:07:33;-0.80;84.13
73509;SHT30;61750;55.036;73.312;2022-11-03T02:10:00;-0.80;84.21
73509;SHT30;61750;55.036;73.312;2022-11-03T02:12:27;-0.80;84.23
73509;SHT30;61750;55.036;73.312;2022-11-03T02:15:01;-0.77;84.30
73509;SHT30;61750;55.036;73.312;2022-11-03T02:17:29;-0.79;84.21
73509;SHT30;61750;55.036;73.312;2022-11-03T02:20:04;-0.79;84.16
73509;SHT30;61750;55.036;73.312;2022-11-03T02:28:14;-0.74;84.30
73509;SHT30;61750;55.036;73.312;2022-11-03T02:33:23;-0.74;84.15
73509;SHT30;61750;55.036;73.312;2022-11-03T02:39:19;-0.62;84.19
73509;SHT30;61750;55.036;73.312;2022-11-03T02:41:48;-0.56;83.93
73509;SHT30;61750;55.036;73.312;2022-11-03T02:44:17;-0.56;83.88
73509;SHT30;61750;55.036;73.312;2022-11-03T02:46:54;-0.53;83.84
73509;SHT30;61750;55.036;73.312;2022-11-03T02:49:27;-0.56;83.78
73509;SHT30;61750;55.036;73.312;2022-11-03T02:52:04;-0.52;83.95
73509;SHT30;61750;55.036;73.312;2022-11-03T02:54:36;-0.48;83.83
73509;SHT30;61750;55.036;73.312;2022-11-03T02:57:20;-0.46;83.68
73509;SHT30;61750;55.036;73.312;2022-11-03T02:59:56;-0.42;83.78
73509;SHT30;61750;55.036;73.312;2022-11-03T03:02:31;-0.38;83.64
73509;SHT30;61750;55.036;73.312;2022-11-03T03:05:02;-0.30;83.61
73509;SHT30;61750;55.036;73.312;2022-11-03T03:07:35;-0.28;83.63
73509;SHT30;61750;55.036;73.312;2022-11-03T03:10:07;-0.29;83.37
73509;SHT30;61750;55.036;73.312;2022-11-03T03:12:35;-0.25;83.57
73509;SHT30;61750;55.036;73.312;2022-11-03T03:15:05;-0.22;83.58
73509;SHT30;61750;55.036;73.312;2022-11-03T03:17:52;-0.22;83.39
73509;SHT30;61750;55.036;73.312;2022-11-03T03:20:27;-0.18;83.56
73509;SHT30;61750;55.036;73.312;2022-11-03T03:22:59;-0.15;83.51
73509;SHT30;61750;55.036;73.312;2022-11-03T03:25:30;-0.12;83.46
73509;SHT30;61750;55.036;73.312;2022-11-03T03:28:15;-0.08;83.40
73509;SHT30;61750;55.036;73.312;2022-11-03T03:30:45;-0.04;83.50
73509;SHT30;61750;55.036;73.312;2022-11-03T03:33:12;0.03;83.56
73509;SHT30;61750;55.036;73.312;2022-11-03T03:35:41;0.15;83.27
73509;SHT30;61750;55.036;73.312;2022-11-03T03:38:16;0.23;83.03
73509;SHT30;61750;55.036;73.312;2022-11-03T03:40:45;0.33;82.83
73509;SHT30;61750;55.036;73.312;2022-11-03T03:44:05;0.35;82.56
73509;SHT30;61750;55.036;73.312;2022-11-03T03:46:42;0.42;82.62
73509;SHT30;61750;55.036;73.312;2022-11-03T03:49:09;0.47;82.52
73509;SHT30;61750;55.036;73.312;2022-11-03T03:51:41;0.56;82.35
73509;SHT30;61750;55.036;73.312;2022-11-03T03:54:07;0.63;81.79
73509;SHT30;61750;55.036;73.312;2022-11-03T03:56:51;0.67;81.93
73509;SHT30;61750;55.036;73.312;2022-11-03T03:59:24;0.77;81.91
73509;SHT30;61750;55.036;73.312;2022-11-03T04:01:50;0.80;81.15
73509;SHT30;61750;55.036;73.312;2022-11-03T04:04:16;0.78;80.89
73509;SHT30;61750;55.036;73.312;2022-11-03T04:06:43;0.74;81.41
73509;SHT30;61750;55.036;73.312;2022-11-03T04:09:09;0.81;81.19
73509;SHT30;61750;55.036;73.312;2022-11-03T04:11:35;0.88;81.43
73509;SHT30;61750;55.036;73.312;2022-11-03T04:14:24;0.94;81.17
73509;SHT30;61750;55.036;73.312;2022-11-03T04:17:18;1.00;81.33
73509;SHT30;61750;55.036;73.312;2022-11-03T04:20:09;1.05;80.73
73509;SHT30;61750;55.036;73.312;2022-11-03T04:22:56;1.09;80.85
73509;SHT30;61750;55.036;73.312;2022-11-03T04:25:22;1.14;80.70
73509;SHT30;61750;55.036;73.312;2022-11-03T04:27:53;1.22;80.68
73509;SHT30;61750;55.036;73.312;2022-11-03T04:30:20;1.20;80.15
73509;SHT30;61750;55.036;73.312;2022-11-03T04:32:48;1.22;80.13
73509;SHT30;61750;55.036;73.312;2022-11-03T04:35:24;1.21;80.26
73509;SHT30;61750;55.036;73.312;2022-11-03T04:37:57;1.30;80.21
73509;SHT30;61750;55.036;73.312;2022-11-03T04:40:25;1.42;80.31
73509;SHT30;61750;55.036;73.312;2022-11-03T04:42:52;1.49;80.01
73509;SHT30;61750;55.036;73.312;2022-11-03T04:45:29;1.58;79.69
73509;SHT30;61750;55.036;73.312;2022-11-03T04:47:58;1.69;79.41
73509;SHT30;61750;55.036;73.312;2022-11-03T04:50:25;1.77;79.13
73509;SHT30;61750;55.036;73.312;2022-11-03T04:52:54;1.85;78.52
73509;SHT30;61750;55.036;73.312;2022-11-03T04:55:27;1.89;78.60
73509;SHT30;61750;55.036;73.312;2022-11-03T04:58:09;2.05;78.35
73509;SHT30;61750;55.036;73.312;2022-11-03T05:00:40;2.23;77.66
73509;SHT30;61750;55.036;73.312;2022-11-03T05:03:16;2.29;77.06
73509;SHT30;61750;55.036;73.312;2022-11-03T05:05:45;2.34;76.32
73509;SHT30;61750;55.036;73.312;2022-11-03T05:08:12;2.37;76.55
73509;SHT30;61750;55.036;73.312;2022-11-03T05:10:38;2.50;76.33
73509;SHT30;61750;55.036;73.312;2022-11-03T05:13:13;2.55;75.97
73509;SHT30;61750;55.036;73.312;2022-11-03T05:15:42;2.55;75.39
73509;SHT30;61750;55.036;73.312;2022-11-03T05:18:24;2.66;75.03
73509;SHT30;61750;55.036;73.312;2022-11-03T05:21:05;2.75;74.81
73509;SHT30;61750;55.036;73.312;2022-11-03T05:24:02;2.84;74.76
73509;SHT30;61750;55.036;73.312;2022-11-03T05:26:35;2.88;74.63
73509;SHT30;61750;55.036;73.312;2022-11-03T05:29:03;2.99;74.31
73509;SHT30;61750;55.036;73.312;2022-11-03T05:31:35;2.99;73.62
73509;SHT30;61750;55.036;73.312;2022-11-03T05:34:11;3.18;73.61
73509;SHT30;61750;55.036;73.312;2022-11-03T05:36:42;3.26;71.90
73509;SHT30;61750;55.036;73.312;2022-11-03T05:41:49;3.46;72.22
73509;SHT30;61750;55.036;73.312;2022-11-03T05:47:16;3.44;70.72
73509;SHT30;61750;55.036;73.312;2022-11-03T05:49:43;3.66;72.68
73509;SHT30;61750;55.036;73.312;2022-11-03T05:52:25;3.74;70.23
73509;SHT30;61750;55.036;73.312;2022-11-03T05:54:58;3.66;70.49
73509;SHT30;61750;55.036;73.312;2022-11-03T05:57:26;3.76;70.97
73509;SHT30;61750;55.036;73.312;2022-11-03T05:59:53;3.74;70.68
73509;SHT30;61750;55.036;73.312;2022-11-03T06:02:39;3.69;70.44
73509;SHT30;61750;55.036;73.312;2022-11-03T06:05:23;3.80;71.29
73509;SHT30;61750;55.036;73.312;2022-11-03T06:07:52;3.83;70.72
73509;SHT30;61750;55.036;73.312;2022-11-03T06:12:55;3.97;70.02
73509;SHT30;61750;55.036;73.312;2022-11-03T06:15:33;3.93;68.99
73509;SHT30;61750;55.036;73.312;2022-11-03T06:18:19;3.86;70.58
73509;SHT30;61750;55.036;73.312;2022-11-03T06:21:13;4.01;70.16
73509;SHT30;61750;55.036;73.312;2022-11-03T06:24:00;4.10;69.79
73509;SHT30;61750;55.036;73.312;2022-11-03T06:26:36;4.25;70.41
73509;SHT30;61750;55.036;73.312;2022-11-03T06:29:02;4.18;69.26
73509;SHT30;61750;55.036;73.312;2022-11-03T06:31:30;4.28;69.07
73509;SHT30;61750;55.036;73.312;2022-11-03T06:34:00;4.41;69.32
73509;SHT30;61750;55.036;73.312;2022-11-03T06:36:30;4.54;68.96
73509;SHT30;61750;55.036;73.312;2022-11-03T06:39:08;4.64;67.98
73509;SHT30;61750;55.036;73.312;2022-11-03T06:41:38;4.59;67.90
73509;SHT30;61750;55.036;73.312;2022-11-03T06:44:25;4.66;66.63
73509;SHT30;61750;55.036;73.312;2022-11-03T06:46:58;4.80;66.91
73509;SHT30;61750;55.036;73.312;2022-11-03T06:49:28;4.93;65.62
73509;SHT30;61750;55.036;73.312;2022-11-03T06:51:57;4.92;66.00
73509;SHT30;61750;55.036;73.312;2022-11-03T06:54:24;4.86;63.19
73509;SHT30;61750;55.036;73.312;2022-11-03T06:56:50;4.92;65.34
73509;SHT30;61750;55.036;73.312;2022-11-03T06:59:16;5.03;63.35
73509;SHT30;61750;55.036;73.312;2022-11-03T07:01:45;5.20;64.14
73509;SHT30;61750;55.036;73.312;2022-11-03T07:04:24;5.44;64.54
73509;SHT30;61750;55.036;73.312;2022-11-03T07:06:59;5.44;61.17
73509;SHT30;61750;55.036;73.312;2022-11-03T07:09:26;5.40;63.44
73509;SHT30;61750;55.036;73.312;2022-11-03T07:11:56;5.58;62.25
73509;SHT30;61750;55.036;73.312;2022-11-03T07:14:31;5.51;62.47
73509;SHT30;61750;55.036;73.312;2022-11-03T07:19:26;5.34;60.22
73509;SHT30;61750;55.036;73.312;2022-11-03T07:21:58;5.34;59.88
73509;SHT30;61750;55.036;73.312;2022-11-03T07:24:29;5.48;61.14
73509;SHT30;61750;55.036;73.312;2022-11-03T07:27:44;5.68;62.03
73509;SHT30;61750;55.036;73.312;2022-11-03T07:29:46;5.90;61.75
73509;SHT30;61750;55.036;73.312;2022-11-03T07:32:21;5.91;60.59
73509;SHT30;61750;55.036;73.312;2022-11-03T07:34:51;5.90;59.98
73509;SHT30;61750;55.036;73.312;2022-11-03T07:37:20;5.81;60.06
73509;SHT30;61750;55.036;73.312;2022-11-03T07:39:47;5.85;60.95
73509;SHT30;61750;55.036;73.312;2022-11-03T07:42:20;6.04;60.90
73509;SHT30;61750;55.036;73.312;2022-11-03T07:44:48;5.98;59.23
73509;SHT30;61750;55.036;73.312;2022-11-03T07:47:23;5.68;58.02
73509;SHT30;61750;55.036;73.312;2022-11-03T07:49:54;5.65;59.22
73509;SHT30;61750;55.036;73.312;2022-11-03T07:52:23;5.74;60.07
73509;SHT30;61750;55.036;73.312;2022-11-03T07:54:55;5.70;59.45
73509;SHT30;61750;55.036;73.312;2022-11-03T07:57:28;5.58;59.28
73509;SHT30;61750;55.036;73.312;2022-11-03T08:00:05;5.57;59.08
73509;SHT30;61750;55.036;73.312;2022-11-03T08:02:55;5.85;58.25
73509;SHT30;61750;55.036;73.312;2022-11-03T08:05:32;6.33;57.91
73509;SHT30;61750;55.036;73.312;2022-11-03T08:07:58;6.53;57.01
73509;SHT30;61750;55.036;73.312;2022-11-03T08:10:24;6.46;55.74
73509;SHT30;61750;55.036;73.312;2022-11-03T08:12:50;6.50;55.39
73509;SHT30;61750;55.036;73.312;2022-11-03T08:15:17;6.63;55.33
73509;SHT30;61750;55.036;73.312;2022-11-03T08:17:43;6.80;53.99
73509;SHT30;61750;55.036;73.312;2022-11-03T08:20:09;6.60;53.85
73509;SHT30;61750;55.036;73.312;2022-11-03T08:22:40;6.35;52.20
73509;SHT30;61750;55.036;73.312;2022-11-03T08:25:07;6.06;55.49
73509;SHT30;61750;55.036;73.312;2022-11-03T08:27:33;5.97;54.45
73509;SHT30;61750;55.036;73.312;2022-11-03T08:29:59;5.87;54.99
73509;SHT30;61750;55.036;73.312;2022-11-03T08:32:25;5.77;56.28
73509;SHT30;61750;55.036;73.312;2022-11-03T08:34:52;5.83;56.80
73509;SHT30;61750;55.036;73.312;2022-11-03T08:37:18;5.97;56.54
73509;SHT30;61750;55.036;73.312;2022-11-03T08:39:44;6.06;55.82
73509;SHT30;61750;55.036;73.312;2022-11-03T08:42:10;6.09;55.14
73509;SHT30;61750;55.036;73.312;2022-11-03T08:44:36;6.28;56.82
73509;SHT30;61750;55.036;73.312;2022-11-03T08:47:02;6.38;55.30
73509;SHT30;61750;55.036;73.312;2022-11-03T08:49:29;6.56;54.64
73509;SHT30;61750;55.036;73.312;2022-11-03T08:51:55;6.59;55.73
73509;SHT30;61750;55.036;73.312;2022-11-03T08:54:21;6.87;55.13
73509;SHT30;61750;55.036;73.312;2022-11-03T08:56:52;7.10;55.02
73509;SHT30;61750;55.036;73.312;2022-11-03T08:59:19;6.97;54.82
73509;SHT30;61750;55.036;73.312;2022-11-03T09:01:45;6.94;55.29
73509;SHT30;61750;55.036;73.312;2022-11-03T09:04:11;6.62;55.72
73509;SHT30;61750;55.036;73.312;2022-11-03T09:06:38;6.62;56.91
73509;SHT30;61750;55.036;73.312;2022-11-03T09:09:06;6.46;56.83
73509;SHT30;61750;55.036;73.312;2022-11-03T09:11:32;6.63;56.50
73509;SHT30;61750;55.036;73.312;2022-11-03T09:14:00;6.35;56.76
73509;SHT30;61750;55.036;73.312;2022-11-03T09:16:26;5.94;57.88
73509;SHT30;61750;55.036;73.312;2022-11-03T09:19:00;5.83;58.02
73509;SHT30;61750;55.036;73.312;2022-11-03T09:21:26;6.21;57.38
73509;SHT30;61750;55.036;73.312;2022-11-03T09:24:02;6.62;56.30
73509;SHT30;61750;55.036;73.312;2022-11-03T09:26:29;6.73;55.97
73509;SHT30;61750;55.036;73.312;2022-11-03T09:28:55;6.66;55.87
73509;SHT30;61750;55.036;73.312;2022-11-03T09:31:21;6.39;56.61
73509;SHT30;61750;55.036;73.312;2022-11-03T09:34:01;7.14;55.64
73509;SHT30;61750;55.036;73.312;2022-11-03T09:36:27;6.97;55.25
73509;SHT30;61750;55.036;73.312;2022-11-03T09:39:00;6.26;57.05
73509;SHT30;61750;55.036;73.312;2022-11-03T09:41:26;5.88;58.35
73509;SHT30;61750;55.036;73.312;2022-11-03T09:44:02;5.51;59.74
73509;SHT30;61750;55.036;73.312;2022-11-03T09:46:29;5.26;60.51
73509;SHT30;61750;55.036;73.312;2022-11-03T09:49:00;5.24;61.18
73509;SHT30;61750;55.036;73.312;2022-11-03T09:51:27;5.06;61.33
73509;SHT30;61750;55.036;73.312;2022-11-03T09:54:03;5.08;61.42
73509;SHT30;61750;55.036;73.312;2022-11-03T09:56:30;4.93;62.04
73509;SHT30;61750;55.036;73.312;2022-11-03T10:01:38;5.22;62.42
73509;SHT30;61750;55.036;73.312;2022-11-03T10:04:05;5.65;61.42
73509;SHT30;61750;55.036;73.312;2022-11-03T10:06:31;6.06;61.09
73509;SHT30;61750;55.036;73.312;2022-11-03T10:09:00;6.63;59.31
73509;SHT30;61750;55.036;73.312;2022-11-03T10:11:26;6.05;60.60
73509;SHT30;61750;55.036;73.312;2022-11-03T10:14:03;5.91;62.15
73509;SHT30;61750;55.036;73.312;2022-11-03T10:16:31;5.87;62.02
73509;SHT30;61750;55.036;73.312;2022-11-03T10:19:02;5.67;62.64
73509;SHT30;61750;55.036;73.312;2022-11-03T10:21:30;5.46;63.50
73509;SHT30;61750;55.036;73.312;2022-11-03T10:24:12;5.53;64.45
73509;SHT30;61750;55.036;73.312;2022-11-03T10:26:48;5.70;64.25
73509;SHT30;61750;55.036;73.312;2022-11-03T10:29:22;5.53;64.66
73509;SHT30;61750;55.036;73.312;2022-11-03T10:31:54;5.15;65.68
73509;SHT30;61750;55.036;73.312;2022-11-03T10:34:27;4.76;67.01
73509;SHT30;61750;55.036;73.312;2022-11-03T10:37:17;4.56;67.56
73509;SHT30;61750;55.036;73.312;2022-11-03T10:39:48;4.40;68.32
73509;SHT30;61750;55.036;73.312;2022-11-03T10:42:20;4.21;68.57
73509;SHT30;61750;55.036;73.312;2022-11-03T10:44:52;3.97;69.44
73509;SHT30;61750;55.036;73.312;2022-11-03T10:47:32;3.83;70.11
73509;SHT30;61750;55.036;73.312;2022-11-03T10:52:54;3.73;70.91
73509;SHT30;61750;55.036;73.312;2022-11-03T10:55:22;3.66;71.30
73509;SHT30;61750;55.036;73.312;2022-11-03T10:57:49;3.70;71.62
73509;SHT30;61750;55.036;73.312;2022-11-03T11:00:21;3.67;71.77
73509;SHT30;61750;55.036;73.312;2022-11-03T11:02:49;3.67;71.80
73509;SHT30;61750;55.036;73.312;2022-11-03T11:05:21;3.70;71.96
73509;SHT30;61750;55.036;73.312;2022-11-03T11:07:51;3.74;72.32
73509;SHT30;61750;55.036;73.312;2022-11-03T11:10:21;3.69;72.20
73509;SHT30;61750;55.036;73.312;2022-11-03T11:15:50;3.64;73.17
73509;SHT30;61750;55.036;73.312;2022-11-03T11:19:01;3.57;73.51
73509;SHT30;61750;55.036;73.312;2022-11-03T11:24:00;3.39;74.42
73509;SHT30;61750;55.036;73.312;2022-11-03T11:26:29;3.27;74.53
73509;SHT30;61750;55.036;73.312;2022-11-03T11:31:36;3.11;75.19
73509;SHT30;61750;55.036;73.312;2022-11-03T11:52:52;3.02;76.33
73509;SHT30;61750;55.036;73.312;2022-11-03T11:57:55;3.02;76.44
73509;SHT30;61750;55.036;73.312;2022-11-03T12:00:25;3.06;76.38
73509;SHT30;61750;55.036;73.312;2022-11-03T12:02:52;3.06;76.52
73509;SHT30;61750;55.036;73.312;2022-11-03T12:05:31;3.20;76.26
73509;SHT30;61750;55.036;73.312;2022-11-03T12:07:58;3.29;76.04
73509;SHT30;61750;55.036;73.312;2022-11-03T12:10:27;3.35;75.90
73509;SHT30;61750;55.036;73.312;2022-11-03T12:12:55;3.36;75.86
73509;SHT30;61750;55.036;73.312;2022-11-03T12:15:53;3.43;76.11
73509;SHT30;61750;55.036;73.312;2022-11-03T12:18:39;3.47;75.92
73509;SHT30;61750;55.036;73.312;2022-11-03T12:21:08;3.53;75.95
73509;SHT30;61750;55.036;73.312;2022-11-03T12:24:00;3.57;75.95
73509;SHT30;61750;55.036;73.312;2022-11-03T12:28:52;3.66;75.91
73509;SHT30;61750;55.036;73.312;2022-11-03T12:31:18;3.69;76.06
73509;SHT30;61750;55.036;73.312;2022-11-03T12:34:00;3.67;76.21
73509;SHT30;61750;55.036;73.312;2022-11-03T12:36:26;3.73;76.35
73509;SHT30;61750;55.036;73.312;2022-11-03T12:39:00;3.71;76.29
73509;SHT30;61750;55.036;73.312;2022-11-03T12:41:26;3.76;76.44
73509;SHT30;61750;55.036;73.312;2022-11-03T12:44:00;3.74;76.31
73509;SHT30;61750;55.036;73.312;2022-11-03T12:46:26;3.74;76.48
73509;SHT30;61750;55.036;73.312;2022-11-03T12:49:00;3.74;76.60
73509;SHT30;61750;55.036;73.312;2022-11-03T12:51:26;3.76;76.91
73509;SHT30;61750;55.036;73.312;2022-11-03T12:54:00;3.76;77.06
73509;SHT30;61750;55.036;73.312;2022-11-03T12:56:30;3.73;77.46
73509;SHT30;61750;55.036;73.312;2022-11-03T12:58:57;3.71;77.89
73509;SHT30;61750;55.036;73.312;2022-11-03T13:01:30;3.67;78.48
73509;SHT30;61750;55.036;73.312;2022-11-03T13:04:00;3.64;79.08
73509;SHT30;61750;55.036;73.312;2022-11-03T13:06:26;3.59;79.67
73509;SHT30;61750;55.036;73.312;2022-11-03T13:09:00;3.50;80.45
73509;SHT30;61750;55.036;73.312;2022-11-03T13:11:36;3.44;80.97
73509;SHT30;61750;55.036;73.312;2022-11-03T13:14:21;3.36;81.58
73509;SHT30;61750;55.036;73.312;2022-11-03T13:16:47;3.33;81.97
73509;SHT30;61750;55.036;73.312;2022-11-03T13:19:13;3.35;82.21
73509;SHT30;61750;55.036;73.312;2022-11-03T13:21:40;3.29;82.47
73509;SHT30;61750;55.036;73.312;2022-11-03T13:24:16;3.26;82.70
73509;SHT30;61750;55.036;73.312;2022-11-03T13:26:42;3.20;83.15
73509;SHT30;61750;55.036;73.312;2022-11-03T13:29:08;3.22;83.39
73509;SHT30;61750;55.036;73.312;2022-11-03T13:31:34;3.26;83.29
73509;SHT30;61750;55.036;73.312;2022-11-03T13:34:06;3.27;83.39
73509;SHT30;61750;55.036;73.312;2022-11-03T13:36:32;3.27;83.33
73509;SHT30;61750;55.036;73.312;2022-11-03T13:39:00;3.29;83.49
73509;SHT30;61750;55.036;73.312;2022-11-03T13:41:26;3.27;83.67
73509;SHT30;61750;55.036;73.312;2022-11-03T13:44:02;3.29;83.89
73509;SHT30;61750;55.036;73.312;2022-11-03T13:46:28;3.29;84.01
73509;SHT30;61750;55.036;73.312;2022-11-03T13:49:00;3.22;84.25
73509;SHT30;61750;55.036;73.312;2022-11-03T13:51:30;3.20;84.70
73509;SHT30;61750;55.036;73.312;2022-11-03T13:54:00;3.25;84.83
73509;SHT30;61750;55.036;73.312;2022-11-03T13:56:26;3.22;84.65
73509;SHT30;61750;55.036;73.312;2022-11-03T13:58:52;3.20;84.88
73509;SHT30;61750;55.036;73.312;2022-11-03T14:01:18;3.19;85.17
73509;SHT30;61750;55.036;73.312;2022-11-03T14:04:00;3.18;85.31
73509;SHT30;61750;55.036;73.312;2022-11-03T14:06:26;3.20;85.49
73509;SHT30;61750;55.036;73.312;2022-11-03T14:09:02;3.20;85.43
73509;SHT30;61750;55.036;73.312;2022-11-03T14:11:28;3.25;85.55
73509;SHT30;61750;55.036;73.312;2022-11-03T14:14:13;3.25;85.54
73509;SHT30;61750;55.036;73.312;2022-11-03T14:16:44;3.26;85.54
73509;SHT30;61750;55.036;73.312;2022-11-03T14:19:10;3.29;85.53
73509;SHT30;61750;55.036;73.312;2022-11-03T14:21:36;3.26;85.50
73509;SHT30;61750;55.036;73.312;2022-11-03T14:24:07;3.26;85.82
73509;SHT30;61750;55.036;73.312;2022-11-03T14:26:33;3.29;85.75
73509;SHT30;61750;55.036;73.312;2022-11-03T14:29:05;3.29;85.71
73509;SHT30;61750;55.036;73.312;2022-11-03T14:31:31;3.29;85.68
73509;SHT30;61750;55.036;73.312;2022-11-03T14:34:00;3.30;85.70
73509;SHT30;61750;55.036;73.312;2022-11-03T14:36:26;3.33;85.50
73509;SHT30;61750;55.036;73.312;2022-11-03T14:39:00;3.35;85.23
73509;SHT30;61750;55.036;73.312;2022-11-03T14:41:26;3.35;85.16
73509;SHT30;61750;55.036;73.312;2022-11-03T14:44:16;3.35;85.06
73509;SHT30;61750;55.036;73.312;2022-11-03T14:46:42;3.33;84.96
73509;SHT30;61750;55.036;73.312;2022-11-03T14:49:08;3.33;85.13
73509;SHT30;61750;55.036;73.312;2022-11-03T14:51:34;3.32;85.09
73509;SHT30;61750;55.036;73.312;2022-11-03T14:54:00;3.35;84.93
73509;SHT30;61750;55.036;73.312;2022-11-03T14:56:27;3.39;84.93
73509;SHT30;61750;55.036;73.312;2022-11-03T14:58:53;3.40;84.72
73509;SHT30;61750;55.036;73.312;2022-11-03T15:01:29;3.39;84.78
73509;SHT30;61750;55.036;73.312;2022-11-03T15:04:00;3.36;84.86
73509;SHT30;61750;55.036;73.312;2022-11-03T15:06:26;3.39;84.75
73509;SHT30;61750;55.036;73.312;2022-11-03T15:09:00;3.42;84.72
73509;SHT30;61750;55.036;73.312;2022-11-03T15:11:26;3.43;84.57
73509;SHT30;61750;55.036;73.312;2022-11-03T15:14:00;3.42;84.54
73509;SHT30;61750;55.036;73.312;2022-11-03T15:16:27;3.47;84.54
73509;SHT30;61750;55.036;73.312;2022-11-03T15:19:00;3.47;84.49
73509;SHT30;61750;55.036;73.312;2022-11-03T15:21:28;3.49;84.41
73509;SHT30;61750;55.036;73.312;2022-11-03T15:24:00;3.53;84.20
73509;SHT30;61750;55.036;73.312;2022-11-03T15:26:26;3.56;84.35
73509;SHT30;61750;55.036;73.312;2022-11-03T15:28:52;3.55;84.14
73509;SHT30;61750;55.036;73.312;2022-11-03T15:31:29;3.59;84.13
73509;SHT30;61750;55.036;73.312;2022-11-03T15:34:00;3.56;84.04
73509;SHT30;61750;55.036;73.312;2022-11-03T15:36:26;3.57;83.96
73509;SHT30;61750;55.036;73.312;2022-11-03T15:39:00;3.53;84.16
73509;SHT30;61750;55.036;73.312;2022-11-03T15:41:26;3.56;84.12
73509;SHT30;61750;55.036;73.312;2022-11-03T15:44:00;3.53;84.14
73509;SHT30;61750;55.036;73.312;2022-11-03T15:46:30;3.55;84.17
73509;SHT30;61750;55.036;73.312;2022-11-03T15:49:00;3.52;84.33
73509;SHT30;61750;55.036;73.312;2022-11-03T15:51:26;3.59;84.23
73509;SHT30;61750;55.036;73.312;2022-11-03T15:54:00;3.55;84.09
73509;SHT30;61750;55.036;73.312;2022-11-03T15:56:27;3.56;83.99
73509;SHT30;61750;55.036;73.312;2022-11-03T15:58:53;3.60;84.19
73509;SHT30;61750;55.036;73.312;2022-11-03T16:01:30;3.56;84.12
73509;SHT30;61750;55.036;73.312;2022-11-03T16:04:00;3.60;84.15
73509;SHT30;61750;55.036;73.312;2022-11-03T16:06:26;3.59;84.07
73509;SHT30;61750;55.036;73.312;2022-11-03T16:09:00;3.63;84.17
73509;SHT30;61750;55.036;73.312;2022-11-03T16:11:30;3.64;84.08
73509;SHT30;61750;55.036;73.312;2022-11-03T16:14:00;3.62;83.95
73509;SHT30;61750;55.036;73.312;2022-11-03T16:16:26;3.64;84.01
73509;SHT30;61750;55.036;73.312;2022-11-03T16:19:00;3.64;83.94
73509;SHT30;61750;55.036;73.312;2022-11-03T16:21:36;3.64;83.85
73509;SHT30;61750;55.036;73.312;2022-11-03T16:24:08;3.64;84.03
73509;SHT30;61750;55.036;73.312;2022-11-03T16:26:34;3.66;83.91
73509;SHT30;61750;55.036;73.312;2022-11-03T16:29:00;3.64;84.10
73509;SHT30;61750;55.036;73.312;2022-11-03T16:31:31;3.60;84.12
73509;SHT30;61750;55.036;73.312;2022-11-03T16:34:00;3.63;84.09
73509;SHT30;61750;55.036;73.312;2022-11-03T16:36:36;3.63;83.96
73509;SHT30;61750;55.036;73.312;2022-11-03T16:39:02;3.63;83.92
73509;SHT30;61750;55.036;73.312;2022-11-03T16:41:29;3.60;84.01
73509;SHT30;61750;55.036;73.312;2022-11-03T16:44:00;3.62;84.03
73509;SHT30;61750;55.036;73.312;2022-11-03T16:46:30;3.63;84.14
73509;SHT30;61750;55.036;73.312;2022-11-03T16:49:00;3.66;83.93
73509;SHT30;61750;55.036;73.312;2022-11-03T16:51:30;3.69;83.76
73509;SHT30;61750;55.036;73.312;2022-11-03T16:54:07;3.64;83.81
73509;SHT30;61750;55.036;73.312;2022-11-03T16:56:34;3.63;83.74